Camp Mabry, Texas
Current Conditions -  °F | °C
As of 9:51 AM on Sunday 21 Dec 2014 (Local Time) from KATT Reporting Station
Overcast Overcast  
Wind Chill: 52°   Ceiling: 1900
Heat Index: 52°   Visibility: 10mi
Dew Point: 46°   Wind: 7mph
Humidity: 80%   Direction: 140°SE
Pressure: 30.11"   Gusts: NA
Location:  30.3482°N, 97.7679°W
Report Text: KATT 211551Z AUTO 14006KT 10SM OVC019 11/08 A3011 RMK AO2 SLP195 T01110078
Loading
Personal Weather Stations






























Interactive Weather Map New forecast layout! Learn more

10-Day Weather Forecast

Advertisements
Track Severe Weather on mobile